Řízení letového provozu České republiky  
Aktualizace dat:  26.05.2019 23:08:25 UTC English version
   METEO Zobrazení stránky:  26.05.2019 23:08:55 UTC  
vysvětlivky
METAR EDDB 262250Z 23008KT CAVOK 18/09 Q1008 NOSIG=
METAR EDDC 262250Z 22007KT CAVOK 15/09 Q1010=
METAR EDDE 262250Z 20009KT CAVOK 14/08 Q1010=
METAR EDDF 262250Z 18005KT CAVOK 13/10 Q1011 NOSIG=
METAR EDDM 262250Z 00000KT CAVOK 11/10 Q1013 NOSIG=
METAR EDDN 262250Z 12004KT CAVOK 13/10 Q1013=
METAR EDDP 262250Z 20010KT CAVOK 16/09 Q1009 NOSIG=
METAR EDDT 262250Z 22008KT CAVOK 18/09 Q1007=
METAR EDQM NIL
METAR EPBY 262300Z 21006KT CAVOK 16/09 Q1008=
METAR EPGD 262300Z 22007KT 9999 FEW028 SCT046 14/10 Q1006=
METAR EPKK 262300Z VRB01KT CAVOK 13/11 Q1013=
METAR EPKT 262300Z 09003KT 5000 MIFG BR NSC 12/11 Q1012=
METAR EPLL 262300Z VRB01KT CAVOK 12/10 Q1011=
METAR EPPO 262300Z 21007KT CAVOK 15/09 Q1009=
METAR EPRZ 262300Z 21004KT CAVOK 15/12 Q1013=
METAR EPWA 262300Z 19004KT CAVOK 14/10 Q1010 NOSIG=
METAR EPWR 262300Z VRB02KT CAVOK 12/11 Q1011=
METAR LHBP 262300Z 00000KT CAVOK 13/13 Q1014 NOSIG=
METAR LHSM 262245Z AUTO 00000KT 8000 NSC 16/15 Q1013=
METAR LKBC 262300Z AUTO VRB01KT 9999 BKN060 BKN076 14/11 Q1012=
METAR LKCV 262300Z VRB02KT CAVOK 15/11 Q1012 NOSIG RMK BLU BLU=
METAR LKKB 262300Z 19005KT CAVOK 13/09 Q1012 RMK BLU=
METAR LKKU NIL
METAR LKKV 262300Z 00000KT CAVOK 09/06 Q1013 RMK REG QNH 1009=
METAR LKLN 262300Z AUTO 00000KT 9999 FEW079 11/09 Q1013=
METAR LKMT 262300Z 21005KT CAVOK 13/12 Q1013 NOSIG RMK REG QNH 1009=
METAR LKNA 262300Z 19003KT CAVOK 15/11 Q1013 RMK BLU=
METAR LKPD 262300Z 00000KT CAVOK 15/11 Q1011 RMK BLU=
METAR LKPJ 262300Z AUTO 08002KT 9999 SCT078/// 13/11 Q1013=
METAR LKPR 262300Z 20007KT 150V220 CAVOK 12/08 Q1012 NOSIG RMK REG QNH 1009=
METAR LKTB 262300Z 04004KT CAVOK 16/12 Q1013 NOSIG RMK REG QNH 1009=
METAR LKVO NIL
METAR LOWI 262250Z AUTO VRB02KT 9999 BKN050 13/11 Q1014=
METAR LOWL 262250Z AUTO VRB01KT 9999 FEW100 14/11 Q1013=
METAR LOWS 262250Z AUTO 16004KT 9999 FEW070 12/10 Q1014=
METAR LOWW 262250Z 15003KT 120V220 9999 FEW060 FEW060TCU BKN110 17/15 Q1013 NOSIG=
METAR LZIB 262300Z 35002KT CAVOK 17/14 Q1013=
METAR LZKZ 262300Z 35002KT CAVOK 13/11 Q1014=
METAR LZMC NIL
METAR LZPP 262300Z AUTO 35004KT 9999 SCT081/// OVC120/// 16/14 Q1013=
METAR LZSL 262300Z 00000KT CAVOK 13/11 Q1014=
METAR LZTT 262300Z 27005KT CAVOK 10/08 Q1015=
METAR LZZI 262300Z VRB01KT CAVOK 12/11 Q1014=